sensor_id;sensor_type;location;lat;lon;timestamp;temperature;humidity
76750;DHT22;66447;35.844;14.468;2023-05-20T00:09:53;20.94;118.99
76750;DHT22;66447;35.844;14.468;2023-05-20T00:24:54;21.30;118.99
76750;DHT22;66447;35.844;14.468;2023-05-20T00:39:55;21.33;118.99
76750;DHT22;66447;35.844;14.468;2023-05-20T00:54:57;20.72;118.99
76750;DHT22;66447;35.844;14.468;2023-05-20T01:09:59;20.46;118.99
76750;DHT22;66447;35.844;14.468;2023-05-20T01:25:01;20.79;118.99
76750;DHT22;66447;35.844;14.468;2023-05-20T01:40:03;20.58;118.99
76750;DHT22;66447;35.844;14.468;2023-05-20T01:55:06;21.91;118.99
76750;DHT22;66447;35.844;14.468;2023-05-20T02:10:07;22.03;118.99
76750;DHT22;66447;35.844;14.468;2023-05-20T02:25:09;21.97;118.99
76750;DHT22;66447;35.844;14.468;2023-05-20T02:40:10;21.10;118.99
76750;DHT22;66447;35.844;14.468;2023-05-20T02:55:13;20.74;118.99
76750;DHT22;66447;35.844;14.468;2023-05-20T03:10:15;21.59;118.99
76750;DHT22;66447;35.844;14.468;2023-05-20T03:25:16;20.91;118.99
76750;DHT22;66447;35.844;14.468;2023-05-20T03:40:18;21.53;118.99
76750;DHT22;66447;35.844;14.468;2023-05-20T03:55:22;21.31;118.99
76750;DHT22;66447;35.844;14.468;2023-05-20T04:10:24;22.13;118.99
76750;DHT22;66447;35.844;14.468;2023-05-20T04:25:26;21.82;118.99
76750;DHT22;66447;35.844;14.468;2023-05-20T04:40:28;22.36;118.99
76750;DHT22;66447;35.844;14.468;2023-05-20T04:55:29;22.14;118.99
76750;DHT22;66447;35.844;14.468;2023-05-20T05:10:31;21.16;118.99
76750;DHT22;66447;35.844;14.468;2023-05-20T05:25:33;21.17;118.99
76750;DHT22;66447;35.844;14.468;2023-05-20T05:40:34;21.70;118.99
76750;DHT22;66447;35.844;14.468;2023-05-20T05:55:36;21.54;118.99
76750;DHT22;66447;35.844;14.468;2023-05-20T06:10:38;22.44;118.99
76750;DHT22;66447;35.844;14.468;2023-05-20T06:25:39;23.86;118.99
76750;DHT22;66447;35.844;14.468;2023-05-20T06:40:41;25.00;118.99
76750;DHT22;66447;35.844;14.468;2023-05-20T06:55:43;24.40;118.99
76750;DHT22;66447;35.844;14.468;2023-05-20T07:10:45;25.00;118.99
76750;DHT22;66447;35.844;14.468;2023-05-20T07:25:47;27.81;118.99
76750;DHT22;66447;35.844;14.468;2023-05-20T07:40:49;24.90;118.99
76750;DHT22;66447;35.844;14.468;2023-05-20T07:55:51;24.89;118.99
76750;DHT22;66447;35.844;14.468;2023-05-20T08:10:52;25.01;118.99
76750;DHT22;66447;35.844;14.468;2023-05-20T08:25:54;25.45;118.99
76750;DHT22;66447;35.844;14.468;2023-05-20T08:40:57;23.47;118.99
76750;DHT22;66447;35.844;14.468;2023-05-20T08:55:59;24.34;118.99
76750;DHT22;66447;35.844;14.468;2023-05-20T09:11:03;25.90;118.99
76750;DHT22;66447;35.844;14.468;2023-05-20T09:26:04;25.52;118.99
76750;DHT22;66447;35.844;14.468;2023-05-20T09:41:11;24.79;118.99
76750;DHT22;66447;35.844;14.468;2023-05-20T09:56:13;26.85;118.99
76750;DHT22;66447;35.844;14.468;2023-05-20T18:26:34;21.00;118.99
76750;DHT22;66447;35.844;14.468;2023-05-20T18:41:40;21.14;118.99
76750;DHT22;66447;35.844;14.468;2023-05-20T18:56:43;21.19;118.99
76750;DHT22;66447;35.844;14.468;2023-05-20T19:11:48;21.10;118.99
76750;DHT22;66447;35.844;14.468;2023-05-20T19:26:55;21.07;118.99
76750;DHT22;66447;35.844;14.468;2023-05-20T19:41:57;20.78;118.99
76750;DHT22;66447;35.844;14.468;2023-05-20T19:56:59;21.08;118.99
76750;DHT22;66447;35.844;14.468;2023-05-20T20:12:00;20.62;118.99
76750;DHT22;66447;35.844;14.468;2023-05-20T20:27:03;21.03;118.99
76750;DHT22;66447;35.844;14.468;2023-05-20T20:42:05;21.20;118.99
76750;DHT22;66447;35.844;14.468;2023-05-20T20:57:10;21.54;118.99
76750;DHT22;66447;35.844;14.468;2023-05-20T21:12:13;21.46;118.99
76750;DHT22;66447;35.844;14.468;2023-05-20T21:27:15;21.75;118.99
76750;DHT22;66447;35.844;14.468;2023-05-20T21:42:16;21.34;118.99
76750;DHT22;66447;35.844;14.468;2023-05-20T21:57:18;21.06;118.99
76750;DHT22;66447;35.844;14.468;2023-05-20T22:12:19;21.69;118.99
76750;DHT22;66447;35.844;14.468;2023-05-20T22:27:21;20.77;118.99
76750;DHT22;66447;35.844;14.468;2023-05-20T22:42:24;21.37;118.99
76750;DHT22;66447;35.844;14.468;2023-05-20T22:57:25;21.08;118.99
76750;DHT22;66447;35.844;14.468;2023-05-20T23:12:28;21.68;118.99
76750;DHT22;66447;35.844;14.468;2023-05-20T23:27:31;22.34;118.99
76750;DHT22;66447;35.844;14.468;2023-05-20T23:42:32;22.06;118.99
76750;DHT22;66447;35.844;14.468;2023-05-20T23:57:34;21.62;118.99
